Fuji Maru — JD2030 — position and weather

sailwx.info

Track history (hours):
 
Tides and Currents Weather Stations Pressure Air Temp Water Temp Dewpoint Dewpoint Depression Visibility Wind Speed Wind Dir Waves Ship Positions

Fuji Maru

Last reported at 2015-Mar-28 03:33 UTC. Time now 2015-Mar-28 03:58 UTC.
Position N 35°39' E 139°46'.

Length 38 m; draft 4.4 m.

Type: Tug. MMSI: 431001102.

Date/timePositionNaut miles runAvg speedWind from/ knotsBaromVisibWave heightAir tempDewpointWater temp
2015-Mar-28 03:33N 35°39' E 139°46'0 0.0
2015-Mar-28 02:33N 35°39' E 139°46'0 0.0
2015-Mar-28 01:33N 35°39' E 139°46'1 1.0
2015-Mar-28 00:33N 35°38' E 139°46'1 1.3
2015-Mar-27 23:33N 35°37' E 139°46'2 2.3
2015-Mar-27 22:33N 35°39' E 139°46'0 0.0
2015-Mar-27 21:33N 35°39' E 139°46'0 0.0
2015-Mar-27 20:33N 35°39' E 139°46'0 0.0
2015-Mar-27 19:33N 35°39' E 139°46'0 0.0
2015-Mar-27 18:30N 35°39' E 139°46'0 0.0
2015-Mar-27 17:30N 35°39' E 139°46'0 0.0
2015-Mar-27 16:27N 35°39' E 139°46'0 0.0
2015-Mar-27 15:33N 35°39' E 139°46'0 0.0
2015-Mar-27 14:33N 35°39' E 139°46'0 0.0
2015-Mar-27 13:30N 35°39' E 139°46'0 0.0
2015-Mar-27 12:33N 35°39' E 139°46'0 0.0
2015-Mar-27 11:33N 35°39' E 139°46'0 0.0
2015-Mar-27 10:27N 35°39' E 139°46'0 0.0
2015-Mar-27 09:27N 35°39' E 139°46'0 0.0
2015-Mar-27 08:33N 35°39' E 139°46'0 0.0
2015-Mar-27 07:33N 35°39' E 139°46'0 0.0
2015-Mar-27 06:33N 35°39' E 139°46'0 0.0
2015-Mar-27 05:33N 35°39' E 139°46'0 0.0
2015-Mar-27 04:33N 35°39' E 139°46'0 0.0
2015-Mar-27 03:30N 35°39' E 139°46'0 0.0
2015-Mar-27 02:24N 35°39' E 139°46'0 0.0
2015-Mar-27 01:30N 35°39' E 139°46'0 0.0
2015-Mar-27 00:33N 35°39' E 139°46'0 0.0
2015-Mar-26 23:33N 35°39' E 139°46'3 3.2
2015-Mar-26 22:32N 35°36' E 139°47'4 3.6
2015-Mar-26 21:32N 35°34' E 139°50'4 4.1
2015-Mar-26 20:31N 35°36' E 139°46'3 2.4
2015-Mar-26 19:24N 35°39' E 139°46'0 0.0
2015-Mar-26 18:33N 35°39' E 139°46'0 0.0
2015-Mar-26 17:33N 35°39' E 139°46'0 0.0
2015-Mar-26 16:30N 35°39' E 139°46'0 0.0
2015-Mar-26 15:33N 35°39' E 139°46'0 0.0
2015-Mar-26 14:30N 35°39' E 139°46'0 0.0
2015-Mar-26 13:27N 35°39' E 139°46'0 0.0
2015-Mar-26 12:27N 35°39' E 139°46'0 0.0
2015-Mar-26 11:33N 35°39' E 139°46'0 0.0
2015-Mar-26 10:27N 35°39' E 139°46'0 0.0
2015-Mar-26 09:33N 35°39' E 139°46'0 0.0
2015-Mar-26 08:27N 35°39' E 139°46'0 0.0
2015-Mar-26 07:30N 35°39' E 139°46'0 0.0
2015-Mar-26 06:33N 35°39' E 139°46'0 0.0
2015-Mar-26 05:30N 35°39' E 139°46'0 0.0
2015-Mar-26 04:33N 35°39' E 139°46'0 0.0
2015-Mar-26 03:30N 35°39' E 139°46'0 0.0
2015-Mar-26 02:33N 35°39' E 139°46'0 0.0
2015-Mar-26 01:21N 35°39' E 139°46'0 0.0
2015-Mar-26 00:33N 35°39' E 139°46'0 0.0
2015-Mar-25 23:33N 35°39' E 139°46'0 0.0
2015-Mar-25 22:33N 35°39' E 139°46'0 0.0
2015-Mar-25 21:33N 35°39' E 139°46'0 0.0
2015-Mar-25 20:30N 35°39' E 139°46'0 0.0
2015-Mar-25 19:24N 35°39' E 139°46'0 0.0
2015-Mar-25 18:30N 35°39' E 139°46'0 0.0
2015-Mar-25 17:33N 35°39' E 139°46'0 0.0
2015-Mar-25 16:21N 35°39' E 139°46'3 3.6
2015-Mar-25 15:33N 35°36' E 139°46'3 3.0
2015-Mar-25 14:31N 35°34' E 139°49'2 2.5
2015-Mar-25 13:32N 35°36' E 139°48'0 0.0
2015-Mar-25 12:32N 35°36' E 139°48'0 0.5
2015-Mar-25 11:33N 35°36' E 139°48'2 2.2
2015-Mar-25 10:34N 35°38' E 139°46'2 2.4
2015-Mar-25 09:33N 35°36' E 139°47'2 1.6
2015-Mar-25 08:33N 35°34' E 139°48'2 2.4
2015-Mar-25 07:34N 35°36' E 139°46'3 2.1
2015-Mar-25 06:13N 35°39' E 139°46'0 0.0
2015-Mar-25 05:31N 35°39' E 139°46'0 0.0
2015-Mar-25 04:31N 35°39' E 139°46'0 0.0
2015-Mar-25 03:31N 35°39' E 139°46'0 0.0
2015-Mar-25 02:28N 35°39' E 139°46'0 0.0
2015-Mar-25 01:25N 35°39' E 139°46'0 0.0
2015-Mar-25 00:25N 35°39' E 139°46'0 0.0
2015-Mar-24 23:28N 35°39' E 139°46'2 2.4
2015-Mar-24 22:34N 35°37' E 139°46'1 1.0
2015-Mar-24 21:28N 35°36' E 139°47'2 2.3
2015-Mar-24 20:33N 35°37' E 139°46'1 1.2
2015-Mar-24 19:32N 35°39' E 139°46'0 0.0
2015-Mar-24 18:23N 35°39' E 139°46'0 0.0
2015-Mar-24 17:29N 35°39' E 139°46'0 0.0
2015-Mar-24 16:26N 35°39' E 139°46'0 0.0
2015-Mar-24 15:32N 35°39' E 139°46'0 0.0
2015-Mar-24 14:32N 35°39' E 139°46'0 0.0
2015-Mar-24 13:32N 35°39' E 139°46'0 0.0
2015-Mar-24 12:32N 35°39' E 139°46'0 0.0
2015-Mar-24 11:32N 35°39' E 139°46'0 0.0
2015-Mar-24 10:26N 35°39' E 139°46'0 0.0
2015-Mar-24 09:29N 35°39' E 139°46'0 0.0
2015-Mar-24 08:29N 35°39' E 139°46'0 0.0
2015-Mar-24 07:23N 35°39' E 139°46'0 0.0
2015-Mar-24 06:29N 35°39' E 139°46'0 0.0
2015-Mar-24 05:29N 35°39' E 139°46'3 3.2
2015-Mar-24 04:32N 35°36' E 139°47'1 1.3
2015-Mar-24 03:33N 35°37' E 139°46'2 2.0
2015-Mar-24 02:33N 35°39' E 139°46'0 0.0
2015-Mar-24 01:33N 35°39' E 139°46'0 0.0
2015-Mar-24 00:27N 35°39' E 139°46'0 0.0
2015-Mar-23 23:33N 35°39' E 139°46'0 0.0
2015-Mar-23 22:33N 35°39' E 139°46'0 0.0
2015-Mar-23 21:30N 35°39' E 139°46'0 0.0
2015-Mar-23 20:30N 35°39' E 139°46'0 0.0
2015-Mar-23 19:30N 35°39' E 139°46'0 0.0
2015-Mar-23 18:21N 35°39' E 139°46'0 0.0
2015-Mar-23 17:09N 35°39' E 139°46'0 0.0
2015-Mar-23 16:33N 35°39' E 139°46'0 0.0
2015-Mar-23 15:33N 35°39' E 139°46'0 0.0
2015-Mar-23 14:33N 35°39' E 139°46'0 0.0
2015-Mar-23 13:27N 35°39' E 139°46'0 0.0
2015-Mar-23 12:27N 35°39' E 139°46'0 0.0
2015-Mar-23 11:33N 35°39' E 139°46'0 0.0
2015-Mar-23 10:33N 35°39' E 139°46'3 2.5
2015-Mar-23 09:31N 35°36' E 139°46'3 3.5
2015-Mar-23 08:33N 35°34' E 139°49'6 5.5
2015-Mar-23 07:33N 35°39' E 139°46'0 0.0
2015-Mar-23 06:33N 35°39' E 139°46'0 0.0
2015-Mar-23 05:30N 35°39' E 139°46'0 0.0
2015-Mar-23 04:30N 35°39' E 139°46'3 2.8
2015-Mar-23 03:33N 35°36' E 139°47'1 0.7
2015-Mar-23 02:33N 35°36' E 139°47'3 2.8
2015-Mar-23 01:20N 35°39' E 139°46'0 0.0
2015-Mar-23 00:29N 35°39' E 139°46'0 0.0
2015-Mar-22 23:32N 35°39' E 139°46'0 0.0
2015-Mar-22 22:23N 35°39' E 139°46'0 0.0
2015-Mar-22 21:29N 35°39' E 139°46'0 0.0
2015-Mar-22 20:29N 35°39' E 139°46'0 0.0
2015-Mar-22 19:26N 35°39' E 139°46'0 0.0
2015-Mar-22 18:32N 35°39' E 139°46'0 0.0
2015-Mar-22 17:32N 35°39' E 139°46'0 0.0
2015-Mar-22 16:23N 35°39' E 139°46'0 0.0
2015-Mar-22 15:26N 35°39' E 139°46'0 0.0
2015-Mar-22 14:26N 35°39' E 139°46'0 0.0
2015-Mar-22 13:32N 35°39' E 139°46'0 0.0
2015-Mar-22 12:32N 35°39' E 139°46'0 0.0
2015-Mar-22 11:32N 35°39' E 139°46'0 0.0
2015-Mar-22 10:32N 35°39' E 139°46'3 2.7
2015-Mar-22 09:20N 35°36' E 139°47'0 0.4
2015-Mar-22 08:32N 35°36' E 139°47'1 0.1
2015-Mar-21 23:15N 35°37' E 139°47'3 3.1
2015-Mar-21 22:19N 35°34' E 139°48'5 5.9
2015-Mar-21 21:33N 35°38' E 139°46'1 0.1
2015-Mar-21 10:33N 35°38' E 139°46'4 4.3
2015-Mar-21 09:33N 35°34' E 139°49'3 1.2
2015-Mar-21 07:14N 35°36' E 139°47'1 1.4
2015-Mar-21 06:31N 35°37' E 139°46'2 0.3
2015-Mar-21 01:04N 35°39' E 139°46'2 3.0
2015-Mar-21 00:15N 35°36' E 139°47'3 3.8
2015-Mar-20 23:31N 35°34' E 139°49'5 0.8
2015-Mar-20 16:28N 35°39' E 139°46'3 0.3
2015-Mar-20 05:26N 35°36' E 139°48'3 0.1
2015-Mar-19 10:10N 35°38' E 139°46'2 3.1
2015-Mar-19 09:26N 35°36' E 139°47'2 2.7
2015-Mar-19 08:33N 35°34' E 139°48'2 2.5
2015-Mar-19 07:32N 35°37' E 139°47'1 0.2
2015-Mar-18 23:09N 35°35' E 139°47'1 1.9
2015-Mar-18 22:33N 35°34' E 139°48'  
Track history (hours):
 
Tides and Currents Weather Stations Pressure Air Temp Water Temp Dewpoint Dewpoint Depression Visibility Wind Speed Wind Dir Waves Ship Positions

Fuji Maru

Last reported at 2015-Mar-28 03:33 UTC. Time now 2015-Mar-28 03:58 UTC.
Position N 35°39' E 139°46'.

Length 38 m; draft 4.4 m.

Type: Tug. MMSI: 431001102.

Date/timePositionNaut miles runAvg speedWind from/ knotsBaromVisibWave heightAir tempDewpointWater temp
2015-Mar-28 03:33N 35°39' E 139°46'0 0.0
2015-Mar-28 02:33N 35°39' E 139°46'0 0.0
2015-Mar-28 01:33N 35°39' E 139°46'1 1.0
2015-Mar-28 00:33N 35°38' E 139°46'1 1.3
2015-Mar-27 23:33N 35°37' E 139°46'2 2.3
2015-Mar-27 22:33N 35°39' E 139°46'0 0.0
2015-Mar-27 21:33N 35°39' E 139°46'0 0.0
2015-Mar-27 20:33N 35°39' E 139°46'0 0.0
2015-Mar-27 19:33N 35°39' E 139°46'0 0.0
2015-Mar-27 18:30N 35°39' E 139°46'0 0.0
2015-Mar-27 17:30N 35°39' E 139°46'0 0.0
2015-Mar-27 16:27N 35°39' E 139°46'0 0.0
2015-Mar-27 15:33N 35°39' E 139°46'0 0.0
2015-Mar-27 14:33N 35°39' E 139°46'0 0.0
2015-Mar-27 13:30N 35°39' E 139°46'0 0.0
2015-Mar-27 12:33N 35°39' E 139°46'0 0.0
2015-Mar-27 11:33N 35°39' E 139°46'0 0.0
2015-Mar-27 10:27N 35°39' E 139°46'0 0.0
2015-Mar-27 09:27N 35°39' E 139°46'0 0.0
2015-Mar-27 08:33N 35°39' E 139°46'0 0.0
2015-Mar-27 07:33N 35°39' E 139°46'0 0.0
2015-Mar-27 06:33N 35°39' E 139°46'0 0.0
2015-Mar-27 05:33N 35°39' E 139°46'0 0.0
2015-Mar-27 04:33N 35°39' E 139°46'0 0.0
2015-Mar-27 03:30N 35°39' E 139°46'0 0.0
2015-Mar-27 02:24N 35°39' E 139°46'0 0.0
2015-Mar-27 01:30N 35°39' E 139°46'0 0.0
2015-Mar-27 00:33N 35°39' E 139°46'0 0.0
2015-Mar-26 23:33N 35°39' E 139°46'3 3.2
2015-Mar-26 22:32N 35°36' E 139°47'4 3.6
2015-Mar-26 21:32N 35°34' E 139°50'4 4.1
2015-Mar-26 20:31N 35°36' E 139°46'3 2.4
2015-Mar-26 19:24N 35°39' E 139°46'0 0.0
2015-Mar-26 18:33N 35°39' E 139°46'0 0.0
2015-Mar-26 17:33N 35°39' E 139°46'0 0.0
2015-Mar-26 16:30N 35°39' E 139°46'0 0.0
2015-Mar-26 15:33N 35°39' E 139°46'0 0.0
2015-Mar-26 14:30N 35°39' E 139°46'0 0.0
2015-Mar-26 13:27N 35°39' E 139°46'0 0.0
2015-Mar-26 12:27N 35°39' E 139°46'0 0.0
2015-Mar-26 11:33N 35°39' E 139°46'0 0.0
2015-Mar-26 10:27N 35°39' E 139°46'0 0.0
2015-Mar-26 09:33N 35°39' E 139°46'0 0.0
2015-Mar-26 08:27N 35°39' E 139°46'0 0.0
2015-Mar-26 07:30N 35°39' E 139°46'0 0.0
2015-Mar-26 06:33N 35°39' E 139°46'0 0.0
2015-Mar-26 05:30N 35°39' E 139°46'0 0.0
2015-Mar-26 04:33N 35°39' E 139°46'0 0.0
2015-Mar-26 03:30N 35°39' E 139°46'0 0.0
2015-Mar-26 02:33N 35°39' E 139°46'0 0.0
2015-Mar-26 01:21N 35°39' E 139°46'0 0.0
2015-Mar-26 00:33N 35°39' E 139°46'0 0.0
2015-Mar-25 23:33N 35°39' E 139°46'0 0.0
2015-Mar-25 22:33N 35°39' E 139°46'0 0.0
2015-Mar-25 21:33N 35°39' E 139°46'0 0.0
2015-Mar-25 20:30N 35°39' E 139°46'0 0.0
2015-Mar-25 19:24N 35°39' E 139°46'0 0.0
2015-Mar-25 18:30N 35°39' E 139°46'0 0.0
2015-Mar-25 17:33N 35°39' E 139°46'0 0.0
2015-Mar-25 16:21N 35°39' E 139°46'3 3.6
2015-Mar-25 15:33N 35°36' E 139°46'3 3.0
2015-Mar-25 14:31N 35°34' E 139°49'2 2.5
2015-Mar-25 13:32N 35°36' E 139°48'0 0.0
2015-Mar-25 12:32N 35°36' E 139°48'0 0.5
2015-Mar-25 11:33N 35°36' E 139°48'2 2.2
2015-Mar-25 10:34N 35°38' E 139°46'2 2.4
2015-Mar-25 09:33N 35°36' E 139°47'2 1.6
2015-Mar-25 08:33N 35°34' E 139°48'2 2.4
2015-Mar-25 07:34N 35°36' E 139°46'3 2.1
2015-Mar-25 06:13N 35°39' E 139°46'0 0.0
2015-Mar-25 05:31N 35°39' E 139°46'0 0.0
2015-Mar-25 04:31N 35°39' E 139°46'0 0.0
2015-Mar-25 03:31N 35°39' E 139°46'0 0.0
2015-Mar-25 02:28N 35°39' E 139°46'0 0.0
2015-Mar-25 01:25N 35°39' E 139°46'0 0.0
2015-Mar-25 00:25N 35°39' E 139°46'0 0.0
2015-Mar-24 23:28N 35°39' E 139°46'2 2.4
2015-Mar-24 22:34N 35°37' E 139°46'1 1.0
2015-Mar-24 21:28N 35°36' E 139°47'2 2.3
2015-Mar-24 20:33N 35°37' E 139°46'1 1.2
2015-Mar-24 19:32N 35°39' E 139°46'0 0.0
2015-Mar-24 18:23N 35°39' E 139°46'0 0.0
2015-Mar-24 17:29N 35°39' E 139°46'0 0.0
2015-Mar-24 16:26N 35°39' E 139°46'0 0.0
2015-Mar-24 15:32N 35°39' E 139°46'0 0.0
2015-Mar-24 14:32N 35°39' E 139°46'0 0.0
2015-Mar-24 13:32N 35°39' E 139°46'0 0.0
2015-Mar-24 12:32N 35°39' E 139°46'0 0.0
2015-Mar-24 11:32N 35°39' E 139°46'0 0.0
2015-Mar-24 10:26N 35°39' E 139°46'0 0.0
2015-Mar-24 09:29N 35°39' E 139°46'0 0.0
2015-Mar-24 08:29N 35°39' E 139°46'0 0.0
2015-Mar-24 07:23N 35°39' E 139°46'0 0.0
2015-Mar-24 06:29N 35°39' E 139°46'0 0.0
2015-Mar-24 05:29N 35°39' E 139°46'3 3.2
2015-Mar-24 04:32N 35°36' E 139°47'1 1.3
2015-Mar-24 03:33N 35°37' E 139°46'2 2.0
2015-Mar-24 02:33N 35°39' E 139°46'0 0.0
2015-Mar-24 01:33N 35°39' E 139°46'0 0.0
2015-Mar-24 00:27N 35°39' E 139°46'0 0.0
2015-Mar-23 23:33N 35°39' E 139°46'0 0.0
2015-Mar-23 22:33N 35°39' E 139°46'0 0.0
2015-Mar-23 21:30N 35°39' E 139°46'0 0.0
2015-Mar-23 20:30N 35°39' E 139°46'0 0.0
2015-Mar-23 19:30N 35°39' E 139°46'0 0.0
2015-Mar-23 18:21N 35°39' E 139°46'0 0.0
2015-Mar-23 17:09N 35°39' E 139°46'0 0.0
2015-Mar-23 16:33N 35°39' E 139°46'0 0.0
2015-Mar-23 15:33N 35°39' E 139°46'0 0.0
2015-Mar-23 14:33N 35°39' E 139°46'0 0.0
2015-Mar-23 13:27N 35°39' E 139°46'0 0.0
2015-Mar-23 12:27N 35°39' E 139°46'0 0.0
2015-Mar-23 11:33N 35°39' E 139°46'0 0.0
2015-Mar-23 10:33N 35°39' E 139°46'3 2.5
2015-Mar-23 09:31N 35°36' E 139°46'3 3.5
2015-Mar-23 08:33N 35°34' E 139°49'6 5.5
2015-Mar-23 07:33N 35°39' E 139°46'0 0.0
2015-Mar-23 06:33N 35°39' E 139°46'0 0.0
2015-Mar-23 05:30N 35°39' E 139°46'0 0.0
2015-Mar-23 04:30N 35°39' E 139°46'3 2.8
2015-Mar-23 03:33N 35°36' E 139°47'1 0.7
2015-Mar-23 02:33N 35°36' E 139°47'3 2.8
2015-Mar-23 01:20N 35°39' E 139°46'0 0.0
2015-Mar-23 00:29N 35°39' E 139°46'0 0.0
2015-Mar-22 23:32N 35°39' E 139°46'0 0.0
2015-Mar-22 22:23N 35°39' E 139°46'0 0.0
2015-Mar-22 21:29N 35°39' E 139°46'0 0.0
2015-Mar-22 20:29N 35°39' E 139°46'0 0.0
2015-Mar-22 19:26N 35°39' E 139°46'0 0.0
2015-Mar-22 18:32N 35°39' E 139°46'0 0.0
2015-Mar-22 17:32N 35°39' E 139°46'0 0.0
2015-Mar-22 16:23N 35°39' E 139°46'0 0.0
2015-Mar-22 15:26N 35°39' E 139°46'0 0.0
2015-Mar-22 14:26N 35°39' E 139°46'0 0.0
2015-Mar-22 13:32N 35°39' E 139°46'0 0.0
2015-Mar-22 12:32N 35°39' E 139°46'0 0.0
2015-Mar-22 11:32N 35°39' E 139°46'0 0.0
2015-Mar-22 10:32N 35°39' E 139°46'3 2.7
2015-Mar-22 09:20N 35°36' E 139°47'0 0.4
2015-Mar-22 08:32N 35°36' E 139°47'1 0.1
2015-Mar-21 23:15N 35°37' E 139°47'3 3.1
2015-Mar-21 22:19N 35°34' E 139°48'5 5.9
2015-Mar-21 21:33N 35°38' E 139°46'1 0.1
2015-Mar-21 10:33N 35°38' E 139°46'4 4.3
2015-Mar-21 09:33N 35°34' E 139°49'3 1.2
2015-Mar-21 07:14N 35°36' E 139°47'1 1.4
2015-Mar-21 06:31N 35°37' E 139°46'2 0.3
2015-Mar-21 01:04N 35°39' E 139°46'2 3.0
2015-Mar-21 00:15N 35°36' E 139°47'3 3.8
2015-Mar-20 23:31N 35°34' E 139°49'5 0.8
2015-Mar-20 16:28N 35°39' E 139°46'3 0.3
2015-Mar-20 05:26N 35°36' E 139°48'3 0.1
2015-Mar-19 10:10N 35°38' E 139°46'2 3.1
2015-Mar-19 09:26N 35°36' E 139°47'2 2.7
2015-Mar-19 08:33N 35°34' E 139°48'2 2.5
2015-Mar-19 07:32N 35°37' E 139°47'1 0.2
2015-Mar-18 23:09N 35°35' E 139°47'1 1.9
2015-Mar-18 22:33N 35°34' E 139°48'  

Dump ship's entire track history